Time;durP1;ratioP1;P1;durP2;ratioP2;P2;SDS_P1;SDS_P2;PMS_P1;PMS_P2;Temp;Humidity;BMP_temperature;BMP_pressure;BME280_temperature;BME280_humidity;BME280_pressure;Samples;Min_cycle;Max_cycle;Signal;HPM_P1;HPM_P2
2021/03/13 00:00:32;;;;;;;7.72;2.00;;;7.30;99.90;;;;;;4841551;29;20195;-83
2021/03/13 00:02:58;;;;;;;6.68;1.70;;;7.30;99.90;;;;;;4857166;29;20230;-80
2021/03/13 00:05:28;;;;;;;3.55;2.38;;;7.30;99.90;;;;;;4841254;29;20680;-78
2021/03/13 00:07:54;;;;;;;3.88;2.10;;;7.30;99.90;;;;;;4856398;29;20250;-80
2021/03/13 00:10:21;;;;;;;6.32;2.35;;;7.30;99.90;;;;;;4849482;29;20595;-78
2021/03/13 00:12:49;;;;;;;3.47;1.75;;;7.20;99.90;;;;;;4843216;29;20319;-78
2021/03/13 00:15:16;;;;;;;6.38;1.92;;;7.20;99.90;;;;;;4850827;29;20298;-77
2021/03/13 00:17:44;;;;;;;9.88;1.90;;;7.30;99.90;;;;;;4844256;29;20223;-78
2021/03/13 00:20:13;;;;;;;4.63;2.20;;;7.30;99.90;;;;;;4862611;29;20576;-77
2021/03/13 00:22:40;;;;;;;2.70;2.47;;;7.30;99.90;;;;;;4855603;29;20275;-76
2021/03/13 00:25:08;;;;;;;6.50;2.47;;;7.30;99.90;;;;;;4829441;29;20281;-75
2021/03/13 00:27:46;;;;;;;5.68;2.90;;;7.30;99.90;;;;;;4848375;29;20687;-77
2021/03/13 00:30:27;;;;;;;3.03;2.03;;;7.30;99.90;;;;;;4843423;29;20196;-77
2021/03/13 00:32:59;;;;;;;6.43;3.10;;;7.30;99.90;;;;;;4851188;29;20670;-76
2021/03/13 00:35:28;;;;;;;6.50;2.30;;;7.30;99.90;;;;;;4842850;29;20227;-75
2021/03/13 00:37:55;;;;;;;6.15;3.10;;;7.40;99.90;;;;;;4830750;29;20236;-75
2021/03/13 00:40:24;;;;;;;3.95;2.40;;;7.40;99.90;;;;;;4837605;29;20190;-78
2021/03/13 00:42:50;;;;;;;6.80;2.78;;;7.40;99.90;;;;;;4850934;29;20232;-75
2021/03/13 00:45:20;;;;;;;4.95;2.25;;;7.30;99.90;;;;;;4856150;29;20216;-75
2021/03/13 00:47:48;;;;;;;3.90;2.60;;;7.40;99.90;;;;;;4857334;29;20223;-75
2021/03/13 00:50:17;;;;;;;7.60;3.10;;;7.40;99.90;;;;;;4827313;29;20276;-75
2021/03/13 00:52:44;;;;;;;5.03;2.47;;;7.40;99.90;;;;;;4834095;29;20243;-74
2021/03/13 00:55:11;;;;;;;5.22;1.98;;;7.40;99.90;;;;;;4847913;29;20229;-75
2021/03/13 00:57:42;;;;;;;4.47;2.00;;;7.40;99.90;;;;;;4846711;29;20224;-77
2021/03/13 01:00:12;;;;;;;3.70;1.90;;;7.40;99.90;;;;;;4861185;29;20191;-75
2021/03/13 01:02:39;;;;;;;2.50;1.70;;;7.40;99.90;;;;;;4837330;29;20302;-76
2021/03/13 01:05:08;;;;;;;4.32;2.30;;;7.40;99.90;;;;;;4835191;29;20579;-76
2021/03/13 01:07:36;;;;;;;4.10;1.90;;;7.40;99.90;;;;;;4855859;29;20388;-75
2021/03/13 01:10:28;;;;;;;7.53;1.80;;;7.40;99.90;;;;;;4859894;29;20710;-78
2021/03/13 01:12:55;;;;;;;3.25;1.88;;;7.40;99.90;;;;;;4852861;29;20232;-76
2021/03/13 01:15:29;;;;;;;2.22;1.50;;;7.40;99.90;;;;;;4856578;29;20273;-78
2021/03/13 01:17:56;;;;;;;3.85;1.85;;;7.30;99.90;;;;;;4855413;29;20232;-75
2021/03/13 01:20:24;;;;;;;2.95;1.60;;;7.40;99.90;;;;;;4841854;29;20192;-76
2021/03/13 01:22:52;;;;;;;1.65;1.40;;;7.30;99.90;;;;;;4836108;29;20223;-78
2021/03/13 01:25:19;;;;;;;2.97;2.03;;;7.30;99.90;;;;;;4846598;29;20222;-77
2021/03/13 01:27:47;;;;;;;2.92;2.15;;;7.30;99.90;;;;;;4848737;29;20234;-78
2021/03/13 01:30:20;;;;;;;2.58;1.60;;;7.30;99.90;;;;;;4853241;29;20215;-76
2021/03/13 01:32:52;;;;;;;1.80;1.27;;;7.20;99.90;;;;;;4850472;29;20223;-79
2021/03/13 01:35:21;;;;;;;1.20;1.10;;;7.20;99.90;;;;;;4807843;29;20227;-82
2021/03/13 01:37:48;;;;;;;2.47;1.27;;;7.30;99.90;;;;;;4842033;29;20227;-79
2021/03/13 01:40:17;;;;;;;1.73;1.20;;;7.30;99.90;;;;;;4856187;29;20195;-79
2021/03/13 01:42:45;;;;;;;1.13;1.00;;;7.20;99.90;;;;;;4844452;29;20228;-81
2021/03/13 01:45:21;;;;;;;2.92;1.75;;;7.20;99.90;;;;;;4840759;29;20631;-82
2021/03/13 01:47:54;;;;;;;2.33;1.40;;;7.20;99.90;;;;;;4843806;29;20219;-81
2021/03/13 01:50:25;;;;;;;2.50;1.20;;;7.20;99.90;;;;;;4856456;29;20547;-85
2021/03/13 01:52:52;;;;;;;1.42;1.33;;;7.10;99.90;;;;;;4855245;29;20215;-82
2021/03/13 01:55:24;;;;;;;3.42;1.17;;;7.10;99.90;;;;;;4846721;29;20211;-81
2021/03/13 01:57:56;;;;;;;1.10;0.90;;;7.10;99.90;;;;;;4844203;29;20224;-82
2021/03/13 02:00:26;;;;;;;1.33;1.02;;;7.00;99.90;;;;;;4866517;29;20291;-84
2021/03/13 02:02:56;;;;;;;1.88;1.02;;;7.00;99.90;;;;;;4839728;29;20590;-80
2021/03/13 02:05:27;;;;;;;23.27;2.45;;;7.10;99.90;;;;;;4846922;29;20705;-80
2021/03/13 02:08:16;;;;;;;1.15;0.80;;;7.10;99.90;;;;;;4838755;29;20223;-80
2021/03/13 02:11:01;;;;;;;1.95;1.17;;;7.00;99.90;;;;;;4826045;29;20235;-84
2021/03/13 02:13:44;;;;;;;2.45;1.10;;;7.00;99.90;;;;;;4827372;29;20215;-81
2021/03/13 02:16:25;;;;;;;1.05;0.95;;;7.00;99.90;;;;;;4858121;29;20195;-81
2021/03/13 02:19:08;;;;;;;0.95;0.80;;;7.00;99.90;;;;;;4843805;29;20273;-82
2021/03/13 02:21:51;;;;;;;1.08;0.85;;;7.00;99.90;;;;;;4818700;29;20359;-81
2021/03/13 02:24:43;;;;;;;1.00;0.90;;;7.00;99.90;;;;;;4852026;29;20268;-83
2021/03/13 02:27:22;;;;;;;0.73;0.73;;;6.90;99.90;;;;;;4796255;29;20224;-79
2021/03/13 02:30:00;;;;;;;1.08;0.77;;;6.90;99.90;;;;;;4858190;29;20739;-82
2021/03/13 02:33:21;;;;;;;1.90;0.40;;;7.00;99.90;;;;;;4842160;29;20703;-79
2021/03/13 02:36:15;;;;;;;0.80;0.50;;;7.00;99.90;;;;;;4848578;29;20204;-77
2021/03/13 02:39:05;;;;;;;1.00;0.80;;;7.00;99.90;;;;;;4874970;29;20635;-81
2021/03/13 02:41:40;;;;;;;0.88;0.63;;;7.00;99.90;;;;;;4844739;29;20202;-76
2021/03/13 02:44:12;;;;;;;0.73;0.60;;;7.00;99.90;;;;;;4816936;29;20215;-77
2021/03/13 02:46:50;;;;;;;1.48;0.50;;;7.00;99.90;;;;;;4853526;29;20587;-79
2021/03/13 02:49:21;;;;;;;1.30;0.45;;;7.00;99.90;;;;;;4847218;29;20199;-77
2021/03/13 02:51:57;;;;;;;1.45;0.77;;;7.00;99.90;;;;;;4847182;29;20292;-81
2021/03/13 02:54:25;;;;;;;1.10;0.60;;;7.00;99.90;;;;;;4871448;29;20581;-79
2021/03/13 02:56:55;;;;;;;1.92;0.60;;;7.00;99.90;;;;;;4843823;29;20228;-84
2021/03/13 02:59:23;;;;;;;0.70;0.52;;;7.00;99.90;;;;;;4846654;29;20723;-79
2021/03/13 03:02:07;;;;;;;0.70;0.60;;;7.00;99.90;;;;;;4854198;29;20215;-78
2021/03/13 03:04:36;;;;;;;0.80;0.50;;;7.00;99.90;;;;;;4853580;29;20272;-78
2021/03/13 03:07:04;;;;;;;0.82;0.77;;;7.00;99.90;;;;;;4845774;29;20234;-78
2021/03/13 03:09:32;;;;;;;0.75;0.63;;;7.10;99.90;;;;;;4843664;29;20191;-78
2021/03/13 03:12:00;;;;;;;1.08;0.57;;;7.10;99.90;;;;;;4841739;29;20216;-78
2021/03/13 03:14:31;;;;;;;0.95;0.60;;;7.10;99.90;;;;;;4857827;29;20615;-77
2021/03/13 03:17:03;;;;;;;1.27;0.52;;;7.10;99.90;;;;;;4857535;29;20223;-78
2021/03/13 03:19:36;;;;;;;1.17;0.47;;;7.10;99.90;;;;;;4843385;29;20199;-78
2021/03/13 03:22:09;;;;;;;2.47;0.70;;;7.20;99.90;;;;;;4839622;29;20280;-77
2021/03/13 03:24:38;;;;;;;0.70;0.40;;;7.20;99.90;;;;;;4851491;29;20215;-78
2021/03/13 03:27:06;;;;;;;2.00;0.40;;;7.20;99.90;;;;;;4839721;29;20488;-74
2021/03/13 03:29:37;;;;;;;0.70;0.60;;;7.20;99.90;;;;;;4866783;29;20196;-78
2021/03/13 03:32:10;;;;;;;0.93;0.50;;;7.30;99.90;;;;;;4849661;29;20222;-79
2021/03/13 03:34:37;;;;;;;1.90;0.98;;;7.30;99.90;;;;;;4828840;29;20697;-77
2021/03/13 03:37:05;;;;;;;0.63;0.50;;;7.40;99.90;;;;;;4839368;29;20725;-79
2021/03/13 03:39:33;;;;;;;0.77;0.70;;;7.40;99.90;;;;;;4855625;23;20596;-76
2021/03/13 03:42:03;;;;;;;0.73;0.52;;;7.40;99.90;;;;;;4843307;29;20215;-76
2021/03/13 03:44:45;;;;;;;1.75;0.80;;;7.40;99.90;;;;;;4844719;29;20232;-76
2021/03/13 03:47:16;;;;;;;0.88;0.60;;;7.50;99.90;;;;;;4846965;29;20327;-76
2021/03/13 03:49:47;;;;;;;2.50;0.77;;;7.50;99.90;;;;;;4845189;29;20199;-76
2021/03/13 03:52:27;;;;;;;1.70;0.70;;;7.50;99.90;;;;;;4847325;29;20215;-76
2021/03/13 03:54:54;;;;;;;1.02;0.63;;;7.50;99.90;;;;;;4861341;29;20294;-76
2021/03/13 03:57:22;;;;;;;0.70;0.63;;;7.50;99.90;;;;;;4855119;29;20262;-77
2021/03/13 03:59:51;;;;;;;1.30;0.90;;;7.50;99.90;;;;;;4836623;29;20195;-76
2021/03/13 04:02:21;;;;;;;2.80;0.68;;;7.50;99.90;;;;;;4861413;29;20231;-76
2021/03/13 04:04:50;;;;;;;0.80;0.60;;;7.50;99.90;;;;;;4837101;29;20215;-77
2021/03/13 04:07:17;;;;;;;4.32;0.63;;;7.40;99.90;;;;;;4846557;29;20343;-77
2021/03/13 04:09:46;;;;;;;0.80;0.65;;;7.40;99.90;;;;;;4853934;29;20658;-77
2021/03/13 04:12:14;;;;;;;1.00;0.68;;;7.40;99.90;;;;;;4859828;29;20880;-76
2021/03/13 04:14:42;;;;;;;2.88;0.73;;;7.30;99.90;;;;;;4860837;29;20238;-77
2021/03/13 04:17:09;;;;;;;1.20;0.57;;;7.30;99.90;;;;;;4854353;29;20227;-77
2021/03/13 04:19:37;;;;;;;0.90;0.70;;;7.30;99.90;;;;;;4844783;29;20202;-77
2021/03/13 04:22:03;;;;;;;1.10;0.90;;;7.40;99.90;;;;;;4856462;29;20698;-77
2021/03/13 04:24:31;;;;;;;1.17;0.73;;;7.40;99.90;;;;;;4852760;29;20211;-77
2021/03/13 04:26:59;;;;;;;2.00;0.80;;;7.30;99.90;;;;;;4845992;29;20325;-77
2021/03/13 04:29:25;;;;;;;0.90;0.90;;;7.30;99.90;;;;;;4859742;29;20201;-77
2021/03/13 04:31:54;;;;;;;0.93;0.75;;;7.40;99.90;;;;;;4858466;29;20226;-77
2021/03/13 04:34:20;;;;;;;1.40;0.55;;;7.40;99.90;;;;;;4859470;29;20211;-77
2021/03/13 04:36:49;;;;;;;0.75;0.55;;;7.30;99.90;;;;;;4856237;29;20228;-77
2021/03/13 04:39:17;;;;;;;0.88;0.70;;;7.30;99.90;;;;;;4860696;29;20214;-77
2021/03/13 04:41:45;;;;;;;0.88;0.63;;;7.40;99.90;;;;;;4843529;29;20633;-76
2021/03/13 04:44:12;;;;;;;1.65;0.60;;;7.40;99.90;;;;;;4849872;29;20303;-76
2021/03/13 04:46:39;;;;;;;0.93;0.70;;;7.40;99.90;;;;;;4845468;29;20242;-77
2021/03/13 04:49:06;;;;;;;2.03;0.70;;;7.40;99.90;;;;;;4852823;29;20558;-77
2021/03/13 04:51:33;;;;;;;2.80;0.63;;;7.50;99.90;;;;;;4853060;29;20255;-77
2021/03/13 04:54:00;;;;;;;0.90;0.57;;;7.60;99.90;;;;;;4852117;29;20211;-77
2021/03/13 04:56:26;;;;;;;0.55;0.50;;;7.50;99.90;;;;;;4859816;29;20650;-77
2021/03/13 04:58:54;;;;;;;1.42;0.60;;;7.50;99.90;;;;;;4844829;29;20238;-77
2021/03/13 05:01:21;;;;;;;0.82;0.63;;;7.50;99.90;;;;;;4859832;29;20192;-77
2021/03/13 05:03:47;;;;;;;1.33;0.60;;;7.50;99.90;;;;;;4860207;29;20215;-76
2021/03/13 05:06:14;;;;;;;1.20;0.70;;;7.60;99.90;;;;;;4859941;29;20626;-76
2021/03/13 05:08:40;;;;;;;1.10;0.68;;;7.60;99.90;;;;;;4855783;29;20223;-76
2021/03/13 05:11:08;;;;;;;0.95;0.30;;;7.60;99.90;;;;;;4850295;29;20247;-76
2021/03/13 05:13:35;;;;;;;2.28;0.50;;;7.70;99.90;;;;;;4858282;29;20571;-76
2021/03/13 05:16:02;;;;;;;1.45;0.50;;;7.60;99.90;;;;;;4857197;29;20203;-76
2021/03/13 05:18:29;;;;;;;1.42;0.60;;;7.60;99.90;;;;;;4859590;29;20218;-76
2021/03/13 05:20:55;;;;;;;1.08;0.50;;;7.60;99.90;;;;;;4858685;29;20199;-76
2021/03/13 05:23:22;;;;;;;1.35;0.60;;;7.70;99.90;;;;;;4859957;29;20647;-76
2021/03/13 05:25:48;;;;;;;0.85;0.43;;;7.70;99.90;;;;;;4851829;29;20223;-76
2021/03/13 05:28:15;;;;;;;1.08;0.50;;;7.70;99.90;;;;;;4858508;29;20654;-76
2021/03/13 05:30:41;;;;;;;1.60;0.60;;;7.70;99.90;;;;;;4858624;29;20199;-77
2021/03/13 05:33:08;;;;;;;2.05;0.50;;;7.70;99.90;;;;;;4856447;29;20215;-77
2021/03/13 05:35:37;;;;;;;0.80;0.50;;;7.70;99.90;;;;;;4845934;29;20207;-76
2021/03/13 05:38:04;;;;;;;3.60;1.05;;;7.80;99.90;;;;;;4849419;29;20281;-77
2021/03/13 05:40:31;;;;;;;0.90;0.60;;;7.70;99.90;;;;;;4855017;29;20230;-77
2021/03/13 05:42:57;;;;;;;0.75;0.50;;;7.70;99.90;;;;;;4842270;29;20234;-77
2021/03/13 05:45:24;;;;;;;1.92;0.70;;;7.80;99.90;;;;;;4859703;29;20207;-77
2021/03/13 05:47:53;;;;;;;1.23;0.40;;;7.80;99.90;;;;;;4858883;29;20223;-77
2021/03/13 05:50:21;;;;;;;2.25;0.68;;;7.80;99.90;;;;;;4843128;29;20282;-77
2021/03/13 05:52:53;;;;;;;3.83;1.20;;;7.80;99.90;;;;;;4855437;29;20223;-76
2021/03/13 05:55:20;;;;;;;3.17;0.70;;;7.80;99.90;;;;;;4859848;29;20615;-77
2021/03/13 05:57:52;;;;;;;4.63;1.52;;;7.80;99.90;;;;;;4857818;29;20364;-77
2021/03/13 06:00:20;;;;;;;3.45;1.00;;;7.70;99.90;;;;;;4840229;29;20212;-77
2021/03/13 06:02:47;;;;;;;0.60;0.50;;;7.70;99.90;;;;;;4857449;29;20314;-76
2021/03/13 06:05:15;;;;;;;2.33;1.05;;;7.70;99.90;;;;;;4858106;29;20199;-77
2021/03/13 06:07:44;;;;;;;2.53;0.77;;;7.70;99.90;;;;;;4858763;29;20254;-77
2021/03/13 06:10:14;;;;;;;1.05;0.70;;;7.70;99.90;;;;;;4843248;29;20689;-77
2021/03/13 06:12:41;;;;;;;1.50;0.50;;;7.80;99.90;;;;;;4857487;29;20226;-77
2021/03/13 06:15:08;;;;;;;1.75;0.80;;;7.80;99.90;;;;;;4856697;29;20739;-77
2021/03/13 06:17:57;;;;;;;1.02;0.70;;;7.70;99.90;;;;;;4858816;29;20226;-77
2021/03/13 06:20:35;;;;;;;2.35;0.63;;;7.80;99.90;;;;;;4853348;29;20362;-77
2021/03/13 06:23:11;;;;;;;1.67;0.85;;;7.80;99.90;;;;;;4857534;29;20227;-76
2021/03/13 06:25:38;;;;;;;2.47;0.50;;;7.80;99.90;;;;;;4852726;29;20242;-76
2021/03/13 06:28:10;;;;;;;1.25;0.50;;;7.80;99.90;;;;;;4842575;29;20219;-77
2021/03/13 06:30:44;;;;;;;1.13;0.40;;;7.80;99.90;;;;;;4842869;29;20219;-77
2021/03/13 06:33:34;;;;;;;0.95;0.47;;;7.80;99.90;;;;;;4855320;29;20294;-77
2021/03/13 06:36:03;;;;;;;0.70;0.50;;;7.80;99.90;;;;;;4837603;29;20203;-77
2021/03/13 06:38:31;;;;;;;0.90;0.52;;;7.80;99.90;;;;;;4838830;29;20253;-77
2021/03/13 06:41:19;;;;;;;1.20;0.40;;;7.80;99.90;;;;;;4842942;29;20603;-77
2021/03/13 06:43:47;;;;;;;1.73;0.73;;;7.90;99.90;;;;;;4857816;29;20211;-77
2021/03/13 06:46:27;;;;;;;1.35;0.55;;;7.90;99.90;;;;;;4859184;29;20274;-76
2021/03/13 06:48:58;;;;;;;1.38;0.45;;;7.80;99.90;;;;;;4859287;29;20215;-77
2021/03/13 06:51:37;;;;;;;2.95;0.60;;;7.80;99.90;;;;;;4858028;29;20187;-76
2021/03/13 06:54:09;;;;;;;1.10;0.57;;;7.90;99.90;;;;;;4858081;29;20307;-77
2021/03/13 06:56:43;;;;;;;1.58;0.50;;;7.90;99.90;;;;;;4857971;29;20215;-77
2021/03/13 06:59:34;;;;;;;0.70;0.40;;;7.90;99.90;;;;;;4857182;29;20225;-77
2021/03/13 07:02:05;;;;;;;1.45;0.77;;;7.80;99.90;;;;;;4850173;29;20219;-77
2021/03/13 07:04:33;;;;;;;1.15;0.60;;;7.80;99.90;;;;;;4841016;29;20223;-76
2021/03/13 07:07:00;;;;;;;1.40;0.50;;;7.90;99.90;;;;;;4857100;29;20242;-76
2021/03/13 07:09:47;;;;;;;2.75;0.70;;;7.90;99.90;;;;;;4853672;29;20192;-76
2021/03/13 07:12:40;;;;;;;1.10;0.60;;;8.00;99.90;;;;;;4857115;29;20314;-76
2021/03/13 07:15:16;;;;;;;1.10;0.30;;;8.00;99.90;;;;;;4845319;29;20215;-76
2021/03/13 07:17:48;;;;;;;1.90;0.43;;;8.00;99.90;;;;;;4843074;29;20229;-76
2021/03/13 07:20:17;;;;;;;1.77;0.50;;;8.00;99.90;;;;;;4833948;29;20219;-76
2021/03/13 07:22:47;;;;;;;0.88;0.50;;;8.00;99.90;;;;;;4850367;29;20630;-76
2021/03/13 07:25:18;;;;;;;0.60;0.40;;;8.00;99.90;;;;;;4858547;29;20211;-76
2021/03/13 07:27:46;;;;;;;0.82;0.55;;;8.00;99.90;;;;;;4841161;29;20233;-76
2021/03/13 07:30:14;;;;;;;1.50;0.60;;;8.10;99.90;;;;;;4851489;29;20554;-77
2021/03/13 07:32:46;;;;;;;0.90;0.50;;;8.10;99.90;;;;;;4852605;29;20215;-77
2021/03/13 07:35:38;;;;;;;1.63;0.50;;;8.10;99.90;;;;;;4860075;29;20236;-77
2021/03/13 07:38:10;;;;;;;1.40;0.60;;;8.10;99.90;;;;;;4861149;29;20226;-78
2021/03/13 07:40:42;;;;;;;1.60;1.50;;;8.00;99.90;;;;;;4862226;29;20199;-78
2021/03/13 07:43:12;;;;;;;0.85;0.60;;;7.80;99.90;;;;;;4855702;29;20219;-78
2021/03/13 07:45:39;;;;;;;2.00;0.60;;;7.40;99.90;;;;;;4860818;29;20221;-78
2021/03/13 07:48:09;;;;;;;2.60;0.77;;;7.10;99.90;;;;;;4853885;29;20223;-77
2021/03/13 07:50:39;;;;;;;2.60;0.70;;;7.00;99.90;;;;;;4844122;29;20653;-77
2021/03/13 07:53:07;;;;;;;1.13;0.50;;;6.90;99.90;;;;;;4860092;29;20216;-77
2021/03/13 07:55:34;;;;;;;0.60;0.52;;;6.90;99.90;;;;;;4851827;29;20215;-77
2021/03/13 07:58:02;;;;;;;1.23;0.50;;;6.90;99.90;;;;;;4859476;29;20287;-77
2021/03/13 08:00:46;;;;;;;1.48;0.50;;;6.90;99.90;;;;;;4861854;29;20195;-76
2021/03/13 08:03:32;;;;;;;1.05;0.43;;;6.90;99.90;;;;;;4855261;29;20222;-76
2021/03/13 08:06:13;;;;;;;1.25;0.80;;;6.90;99.90;;;;;;4854869;29;20212;-76
2021/03/13 08:08:50;;;;;;;0.60;0.50;;;7.00;99.90;;;;;;4861372;29;20686;-76
2021/03/13 08:11:19;;;;;;;2.05;0.63;;;7.00;99.90;;;;;;4861957;29;20252;-76
2021/03/13 08:13:51;;;;;;;1.67;0.65;;;7.00;99.90;;;;;;4859708;29;20215;-77
2021/03/13 08:16:41;;;;;;;2.78;0.75;;;7.10;99.90;;;;;;4857057;29;20194;-76
2021/03/13 08:19:26;;;;;;;1.80;0.50;;;7.10;99.90;;;;;;4853921;29;20195;-77
2021/03/13 08:22:15;;;;;;;2.20;0.73;;;7.10;99.90;;;;;;4843216;29;20635;-76
2021/03/13 08:24:47;;;;;;;1.17;0.60;;;7.10;99.90;;;;;;4861188;29;20211;-76
2021/03/13 08:27:15;;;;;;;0.95;0.70;;;7.20;99.90;;;;;;4840807;29;20263;-76
2021/03/13 08:29:44;;;;;;;1.70;0.60;;;7.20;99.90;;;;;;4842721;29;20231;-76
2021/03/13 08:32:10;;;;;;;1.00;0.60;;;7.30;99.90;;;;;;4860399;29;20231;-76
2021/03/13 08:34:37;;;;;;;1.88;1.00;;;7.30;99.90;;;;;;4860194;29;20211;-76
2021/03/13 08:37:18;;;;;;;1.88;1.05;;;7.30;99.90;;;;;;4841807;29;20619;-76
2021/03/13 08:39:48;;;;;;;1.80;0.90;;;7.40;99.90;;;;;;4860456;29;20211;-76
2021/03/13 08:42:31;;;;;;;1.25;0.52;;;7.40;99.90;;;;;;4843858;29;20227;-76
2021/03/13 08:45:15;;;;;;;2.40;1.67;;;7.40;99.90;;;;;;4849534;29;20216;-76
2021/03/13 08:48:00;;;;;;;3.08;1.17;;;7.40;99.90;;;;;;4854096;29;20292;-76
2021/03/13 08:50:45;;;;;;;1.70;0.98;;;7.40;99.90;;;;;;4844256;29;20725;-76
2021/03/13 08:53:38;;;;;;;2.20;1.30;;;7.40;99.90;;;;;;4845321;29;20709;-76
2021/03/13 08:56:36;;;;;;;4.10;1.00;;;7.50;99.90;;;;;;4851003;29;20200;-76
2021/03/13 08:59:12;;;;;;;6.03;1.10;;;7.50;99.90;;;;;;4851300;29;20682;-76
2021/03/13 09:01:40;;;;;;;1.95;0.80;;;7.40;99.90;;;;;;4859745;29;20222;-75
2021/03/13 09:04:06;;;;;;;4.43;1.15;;;7.40;99.90;;;;;;4850868;29;20211;-76
2021/03/13 09:06:42;;;;;;;2.22;1.10;;;7.40;99.90;;;;;;4847495;29;20249;-76
2021/03/13 09:09:11;;;;;;;2.58;1.35;;;7.40;99.90;;;;;;4854507;29;20285;-76
2021/03/13 09:11:40;;;;;;;5.18;2.10;;;7.40;99.90;;;;;;4855579;29;20233;-76
2021/03/13 09:14:06;;;;;;;1.85;1.10;;;7.40;99.90;;;;;;4844845;29;20678;-76
2021/03/13 09:16:35;;;;;;;4.82;1.45;;;7.40;99.90;;;;;;4849537;29;20239;-76
2021/03/13 09:19:03;;;;;;;7.13;1.95;;;7.40;99.90;;;;;;4841986;29;20451;-76
2021/03/13 09:21:37;;;;;;;3.33;1.20;;;7.40;99.90;;;;;;4849790;29;20274;-76
2021/03/13 09:24:06;;;;;;;1.92;1.30;;;7.40;99.90;;;;;;4846010;29;20548;-76
2021/03/13 09:26:32;;;;;;;5.53;1.38;;;7.40;99.90;;;;;;4849551;29;20689;-76
2021/03/13 09:28:59;;;;;;;4.15;1.67;;;7.40;99.90;;;;;;4843193;29;20187;-76
2021/03/13 09:31:27;;;;;;;10.05;1.50;;;7.30;99.90;;;;;;4838410;29;20298;-75
2021/03/13 09:34:11;;;;;;;5.22;1.50;;;7.30;99.90;;;;;;4838890;29;20886;-75
2021/03/13 09:36:44;;;;;;;4.72;1.50;;;7.30;99.90;;;;;;4854964;29;20223;-75
2021/03/13 09:39:11;;;;;;;4.18;1.58;;;7.30;99.90;;;;;;4862843;29;20199;-75
2021/03/13 09:41:38;;;;;;;9.07;1.42;;;7.30;99.90;;;;;;4856782;29;20223;-75
2021/03/13 09:44:05;;;;;;;3.60;1.23;;;7.30;99.90;;;;;;4889689;23;20225;-83
2021/03/13 09:46:32;;;;;;;7.47;1.73;;;7.30;99.90;;;;;;4879491;29;20213;-84
2021/03/13 09:48:59;;;;;;;6.18;1.35;;;7.30;99.90;;;;;;4859623;29;20199;-82
2021/03/13 09:51:27;;;;;;;7.28;1.77;;;7.40;99.90;;;;;;4875753;29;20246;-82
2021/03/13 09:53:57;;;;;;;4.53;1.83;;;7.50;99.90;;;;;;4877704;29;20222;-83
2021/03/13 09:56:32;;;;;;;6.13;2.30;;;7.50;99.90;;;;;;4862593;29;20222;-85
2021/03/13 09:58:59;;;;;;;4.22;2.08;;;7.60;99.90;;;;;;4872315;29;20206;-85
2021/03/13 10:01:26;;;;;;;6.82;1.65;;;7.60;99.90;;;;;;4888702;29;20477;-86
2021/03/13 10:03:53;;;;;;;7.28;1.90;;;7.80;99.90;;;;;;4880359;29;20258;-85
2021/03/13 10:06:20;;;;;;;9.02;2.10;;;8.00;99.90;;;;;;4880647;29;20206;-83
2021/03/13 10:08:58;;;;;;;5.95;2.45;;;8.10;99.90;;;;;;4864112;29;20214;-83
2021/03/13 10:11:38;;;;;;;8.68;1.63;;;8.30;99.90;;;;;;4871392;29;20653;-84
2021/03/13 10:14:05;;;;;;;2.72;1.30;;;8.70;99.90;;;;;;4876523;29;20210;-79
2021/03/13 10:16:32;;;;;;;3.53;1.38;;;8.90;99.90;;;;;;4878848;29;20219;-82
2021/03/13 10:18:59;;;;;;;7.60;2.17;;;9.10;99.90;;;;;;4878601;29;20713;-87
2021/03/13 10:21:26;;;;;;;5.78;1.33;;;9.10;99.90;;;;;;4891877;29;20673;-82
2021/03/13 10:23:59;;;;;;;4.50;2.30;;;9.30;99.90;;;;;;4851088;29;20232;-82
2021/03/13 10:26:28;;;;;;;4.22;1.77;;;9.40;99.90;;;;;;4855040;29;20231;-83
2021/03/13 10:28:57;;;;;;;5.60;1.70;;;9.60;99.60;;;;;;4877881;29;20202;-82
2021/03/13 10:31:28;;;;;;;5.55;1.92;;;9.60;97.60;;;;;;4874140;29;20198;-84
2021/03/13 10:34:00;;;;;;;3.92;1.67;;;9.50;98.20;;;;;;4877664;29;20288;-80
2021/03/13 10:36:44;;;;;;;5.22;1.58;;;9.30;96.80;;;;;;4877696;29;20538;-82
2021/03/13 10:39:10;;;;;;;5.75;1.85;;;9.20;98.00;;;;;;4866072;29;20573;-79
2021/03/13 10:41:38;;;;;;;4.45;1.75;;;9.20;98.40;;;;;;4885395;29;20695;-80
2021/03/13 10:44:04;;;;;;;6.45;1.33;;;9.20;98.40;;;;;;4883560;29;20317;-80
2021/03/13 10:46:37;;;;;;;6.60;1.90;;;9.30;96.40;;;;;;4873885;29;20267;-82
2021/03/13 10:49:05;;;;;;;8.13;1.88;;;9.40;96.70;;;;;;4880983;29;20197;-83
2021/03/13 10:51:41;;;;;;;4.60;2.30;;;9.50;96.70;;;;;;4874693;29;20203;-82
2021/03/13 10:54:22;;;;;;;9.57;2.83;;;9.60;96.20;;;;;;4883840;29;20265;-85
2021/03/13 10:56:48;;;;;;;10.95;2.58;;;9.50;97.80;;;;;;4894510;29;20644;-82
2021/03/13 10:59:15;;;;;;;8.75;2.20;;;9.30;99.90;;;;;;4872801;29;20211;-82
2021/03/13 11:01:46;;;;;;;11.80;2.60;;;9.20;99.60;;;;;;4893387;29;20217;-88
2021/03/13 11:04:13;;;;;;;7.10;2.67;;;9.30;99.00;;;;;;4893933;29;20289;-85
2021/03/13 11:06:40;;;;;;;10.05;1.75;;;9.40;98.50;;;;;;4864758;29;20302;-83
2021/03/13 11:09:10;;;;;;;7.75;2.50;;;9.40;97.80;;;;;;4868285;29;20194;-81
2021/03/13 11:11:39;;;;;;;5.97;1.98;;;9.40;95.90;;;;;;4867480;29;20313;-85
2021/03/13 11:14:07;;;;;;;8.90;2.78;;;9.50;96.70;;;;;;4876683;29;20270;-81
2021/03/13 11:16:35;;;;;;;7.50;2.85;;;9.50;96.50;;;;;;4880391;29;20721;-84
2021/03/13 11:19:03;;;;;;;7.78;2.08;;;9.60;94.00;;;;;;4854713;29;20197;-85
2021/03/13 11:21:30;;;;;;;12.75;3.30;;;9.60;95.00;;;;;;4899499;29;20289;-85
2021/03/13 11:23:57;;;;;;;13.00;2.53;;;9.60;94.20;;;;;;4896587;29;20557;-80
2021/03/13 11:26:24;;;;;;;7.28;1.80;;;9.50;93.70;;;;;;4872886;29;20266;-84
2021/03/13 11:28:51;;;;;;;7.47;2.67;;;9.50;93.80;;;;;;4867677;29;20218;-82
2021/03/13 11:31:21;;;;;;;8.68;2.40;;;9.50;94.00;;;;;;4873546;29;20661;-83
2021/03/13 11:33:49;;;;;;;7.82;2.28;;;9.50;91.70;;;;;;4881090;29;20186;-85
2021/03/13 11:36:16;;;;;;;9.15;3.05;;;9.40;92.20;;;;;;4884219;29;20617;-82
2021/03/13 11:38:43;;;;;;;7.90;2.90;;;9.30;92.90;;;;;;4864456;29;20594;-85
2021/03/13 11:41:10;;;;;;;10.30;2.92;;;9.20;94.60;;;;;;4888845;29;20284;-82
2021/03/13 11:43:41;;;;;;;8.23;1.80;;;9.00;95.20;;;;;;4887726;29;20576;-85
2021/03/13 11:46:12;;;;;;;8.82;2.05;;;9.00;95.60;;;;;;4868691;29;20203;-81
2021/03/13 11:48:41;;;;;;;6.43;2.17;;;9.00;95.80;;;;;;4891693;29;20323;-82
2021/03/13 11:51:08;;;;;;;10.75;2.90;;;9.00;96.40;;;;;;4860016;29;20214;-82
2021/03/13 11:53:35;;;;;;;6.28;2.17;;;9.00;97.70;;;;;;4890617;29;20325;-83
2021/03/13 11:56:02;;;;;;;5.82;2.03;;;9.20;97.70;;;;;;4874192;29;20217;-77
2021/03/13 11:58:28;;;;;;;8.10;2.20;;;9.30;97.70;;;;;;4876716;29;20314;-80
2021/03/13 12:01:17;;;;;;;10.10;3.30;;;9.50;96.50;;;;;;4883141;29;20278;-83
2021/03/13 12:03:44;;;;;;;8.98;2.60;;;9.50;95.20;;;;;;4864396;29;20207;-79
2021/03/13 12:06:11;;;;;;;7.70;2.60;;;9.60;94.50;;;;;;4880488;29;20218;-82
2021/03/13 12:08:55;;;;;;;4.03;1.95;;;9.60;94.30;;;;;;4863349;29;20222;-80
2021/03/13 12:11:22;;;;;;;7.25;2.50;;;9.90;94.00;;;;;;4870734;29;20270;-81
2021/03/13 12:13:49;;;;;;;6.35;2.00;;;10.00;92.70;;;;;;4880475;29;20210;-81
2021/03/13 12:16:15;;;;;;;8.40;2.03;;;10.20;91.30;;;;;;4878131;29;20218;-81
2021/03/13 12:18:43;;;;;;;12.85;2.80;;;10.40;91.80;;;;;;4893283;29;20543;-82
2021/03/13 12:21:10;;;;;;;9.45;3.10;;;10.50;90.40;;;;;;4870854;29;20547;-82
2021/03/13 12:23:36;;;;;;;8.68;2.53;;;10.70;88.20;;;;;;4884964;29;20214;-82
2021/03/13 12:26:03;;;;;;;11.20;2.67;;;10.60;88.60;;;;;;4888423;29;20179;-79
2021/03/13 12:28:29;;;;;;;8.55;2.35;;;10.40;86.60;;;;;;4878094;29;20275;-83
2021/03/13 12:30:56;;;;;;;7.57;2.00;;;10.30;87.30;;;;;;4879166;29;20198;-79
2021/03/13 12:33:22;;;;;;;5.38;2.10;;;10.30;84.10;;;;;;4879361;29;20644;-79
2021/03/13 12:36:09;;;;;;;6.40;3.13;;;10.20;89.70;;;;;;4876895;29;20210;-81
2021/03/13 12:38:36;;;;;;;8.48;3.05;;;10.20;90.20;;;;;;4888186;29;20273;-83
2021/03/13 12:41:05;;;;;;;13.15;2.17;;;10.30;90.00;;;;;;4890222;29;20625;-80
2021/03/13 12:43:36;;;;;;;5.82;3.33;;;10.40;90.50;;;;;;4883635;29;20285;-84
2021/03/13 12:46:04;;;;;;;4.35;2.50;;;10.40;91.20;;;;;;4885470;29;20199;-80
2021/03/13 12:48:37;;;;;;;7.68;2.30;;;10.30;91.50;;;;;;4862628;29;20648;-81
2021/03/13 12:51:04;;;;;;;5.53;2.10;;;10.20;92.40;;;;;;4877339;29;20203;-82
2021/03/13 12:53:51;;;;;;;6.82;2.03;;;10.20;93.10;;;;;;4885155;29;20760;-80
2021/03/13 12:57:37;;;;;;;8.25;2.78;;;10.10;93.00;;;;;;4837795;29;20837;-82
2021/03/13 13:00:31;;;;;;;5.88;2.25;;;9.90;93.40;;;;;;4864890;29;20215;-82
2021/03/13 13:02:57;;;;;;;6.55;2.67;;;9.80;94.40;;;;;;4882582;29;20223;-82
2021/03/13 13:05:24;;;;;;;4.45;1.65;;;9.70;94.20;;;;;;4876886;29;20258;-82
2021/03/13 13:07:54;;;;;;;7.13;1.83;;;9.70;94.80;;;;;;4885572;29;20653;-80
2021/03/13 13:10:21;;;;;;;5.10;1.60;;;9.80;92.60;;;;;;4864961;29;20187;-80
2021/03/13 13:12:48;;;;;;;3.30;1.63;;;9.80;92.30;;;;;;4872792;29;20227;-82
2021/03/13 13:15:15;;;;;;;6.88;2.28;;;9.90;90.80;;;;;;4878756;29;20210;-81
2021/03/13 13:17:41;;;;;;;6.40;1.90;;;9.90;91.70;;;;;;4863903;29;20706;-80